Time;durP1;ratioP1;P1;durP2;ratioP2;P2;SDS_P1;SDS_P2;PMS_P1;PMS_P2;Temp;Humidity;BMP_temperature;BMP_pressure;BME280_temperature;BME280_humidity;BME280_pressure;Samples;Min_cycle;Max_cycle;Signal;HPM_P1;HPM_P2
2023/06/15 00:01:58;;;;;;;12.38;6.55;;;;;;;;;;4993062;28;20403;-66
2023/06/15 00:04:24;;;;;;;12.65;6.63;;;;;;;;;;4992572;28;20018;-65
2023/06/15 00:06:51;;;;;;;12.02;6.78;;;;;;;;;;4993060;28;20483;-65
2023/06/15 00:09:17;;;;;;;8.07;6.43;;;;;;;;;;4992892;28;20027;-66
2023/06/15 00:11:44;;;;;;;15.40;6.68;;;;;;;;;;4993397;28;20019;-66
2023/06/15 00:14:10;;;;;;;12.02;7.28;;;;;;;;;;4992836;28;20032;-65
2023/06/15 00:16:41;;;;;;;15.05;7.53;;;;;;;;;;4992893;28;20030;-65
2023/06/15 00:19:08;;;;;;;;;;;;;;;;;;4992960;28;20040;-65
2023/06/15 00:21:40;;;;;;;17.45;7.10;;;;;;;;;;4992918;28;19928;-66
2023/06/15 00:24:08;;;;;;;11.30;6.80;;;;;;;;;;4993046;28;20026;-65
2023/06/15 00:26:34;;;;;;;13.02;7.15;;;;;;;;;;4992941;28;20091;-66
2023/06/15 00:29:00;;;;;;;14.10;6.63;;;;;;;;;;4992860;28;20025;-66
2023/06/15 00:31:27;;;;;;;9.55;7.30;;;;;;;;;;4992938;28;20038;-66
2023/06/15 00:33:53;;;;;;;10.98;7.70;;;;;;;;;;4992682;28;20026;-65
2023/06/15 00:36:20;;;;;;;11.75;7.50;;;;;;;;;;4992644;28;20022;-66
2023/06/15 00:38:46;;;;;;;12.40;7.25;;;;;;;;;;4992623;28;20475;-66
2023/06/15 00:41:12;;;;;;;12.70;7.55;;;;;;;;;;4992716;28;20034;-65
2023/06/15 00:43:40;;;;;;;14.73;7.20;;;;;;;;;;4992900;28;20046;-65
2023/06/15 00:46:06;;;;;;;13.05;6.90;;;;;;;;;;4992426;28;20028;-65
2023/06/15 00:48:32;;;;;;;13.80;7.78;;;;;;;;;;4992669;28;20023;-65
2023/06/15 00:50:59;;;;;;;9.52;7.80;;;;;;;;;;4992556;28;20882;-65
2023/06/15 00:53:25;;;;;;;14.50;7.05;;;;;;;;;;4992482;28;20026;-65
2023/06/15 00:55:52;;;;;;;17.83;8.20;;;;;;;;;;4992953;28;20026;-65
2023/06/15 00:58:19;;;;;;;12.00;8.80;;;;;;;;;;4992380;28;20030;-65
2023/06/15 01:00:48;;;;;;;16.15;9.55;;;;;;;;;;4992066;28;20030;-65
2023/06/15 01:03:20;;;;;;;14.77;9.25;;;;;;;;;;4992505;28;20022;-65
2023/06/15 01:05:52;;;;;;;12.40;9.52;;;;;;;;;;4992606;28;20025;-65
2023/06/15 01:08:20;;;;;;;12.32;9.70;;;;;;;;;;4992486;28;20031;-65
2023/06/15 01:10:47;;;;;;;12.75;9.13;;;;;;;;;;4992491;28;20022;-65
2023/06/15 01:13:14;;;;;;;14.40;9.75;;;;;;;;;;4992327;28;20032;-65
2023/06/15 01:15:40;;;;;;;18.77;9.82;;;;;;;;;;4992745;28;20479;-65
2023/06/15 01:18:08;;;;;;;19.30;10.65;;;;;;;;;;4996161;28;20043;-66
2023/06/15 01:20:38;;;;;;;20.52;10.00;;;;;;;;;;4995960;28;20037;-66
2023/06/15 01:23:11;;;;;;;16.27;10.55;;;;;;;;;;4995937;28;20033;-66
2023/06/15 01:25:41;;;;;;;12.60;10.45;;;;;;;;;;4995955;28;20034;-65
2023/06/15 01:28:09;;;;;;;12.95;10.57;;;;;;;;;;4995709;28;20031;-65
2023/06/15 01:30:38;;;;;;;19.25;11.25;;;;;;;;;;4995697;28;20060;-65
2023/06/15 01:33:05;;;;;;;15.77;11.20;;;;;;;;;;4995817;28;20499;-66
2023/06/15 01:35:31;;;;;;;18.75;11.63;;;;;;;;;;4995807;28;20036;-65
2023/06/15 01:37:57;;;;;;;17.75;11.52;;;;;;;;;;4995602;28;20046;-66
2023/06/15 01:40:24;;;;;;;20.40;11.40;;;;;;;;;;4995891;28;20018;-65
2023/06/15 01:42:51;;;;;;;16.48;10.75;;;;;;;;;;4995549;28;20030;-66
2023/06/15 01:45:17;;;;;;;15.45;10.77;;;;;;;;;;4995571;28;20034;-65
2023/06/15 01:47:44;;;;;;;16.63;11.77;;;;;;;;;;4995613;28;20026;-65
2023/06/15 01:50:11;;;;;;;19.38;11.52;;;;;;;;;;4995386;28;20021;-65
2023/06/15 01:52:37;;;;;;;15.13;11.25;;;;;;;;;;4995193;28;20057;-65
2023/06/15 01:55:04;;;;;;;16.83;10.98;;;;;;;;;;4995537;28;20029;-65
2023/06/15 01:57:35;;;;;;;14.68;10.73;;;;;;;;;;4995253;28;20516;-66
2023/06/15 02:00:01;;;;;;;;;;;;;;;;;;4995258;28;20026;-65
2023/06/15 02:02:27;;;;;;;15.55;9.30;;;;;;;;;;4995595;28;19909;-65
2023/06/15 02:04:53;;;;;;;11.95;8.93;;;;;;;;;;4995218;28;20029;-65
2023/06/15 02:07:20;;;;;;;13.80;8.35;;;;;;;;;;4995198;28;20019;-65
2023/06/15 02:09:46;;;;;;;12.82;8.90;;;;;;;;;;4995015;28;20034;-65
2023/06/15 02:12:12;;;;;;;10.48;8.25;;;;;;;;;;4995313;28;20030;-66
2023/06/15 02:14:40;;;;;;;12.52;7.50;;;;;;;;;;4993834;28;20037;-65
2023/06/15 02:17:07;;;;;;;14.95;8.30;;;;;;;;;;4994951;28;20030;-65
2023/06/15 02:19:33;;;;;;;17.40;8.60;;;;;;;;;;4994938;28;20418;-65
2023/06/15 02:22:00;;;;;;;13.48;8.18;;;;;;;;;;4994942;28;20478;-65
2023/06/15 02:24:26;;;;;;;12.43;7.70;;;;;;;;;;4994993;28;20023;-66
2023/06/15 02:26:52;;;;;;;10.38;7.60;;;;;;;;;;4994627;28;20033;-66
2023/06/15 02:29:19;;;;;;;12.07;7.60;;;;;;;;;;4994297;28;20025;-66
2023/06/15 02:31:45;;;;;;;12.18;7.85;;;;;;;;;;4994713;28;20395;-65
2023/06/15 02:34:11;;;;;;;11.05;7.88;;;;;;;;;;4994597;28;20632;-65
2023/06/15 02:36:39;;;;;;;10.00;7.68;;;;;;;;;;4994695;28;20026;-65
2023/06/15 02:39:06;;;;;;;12.13;8.57;;;;;;;;;;4994622;28;20493;-65
2023/06/15 02:41:33;;;;;;;13.95;9.07;;;;;;;;;;4993559;28;20031;-66
2023/06/15 02:44:01;;;;;;;11.45;9.65;;;;;;;;;;4994020;28;20072;-65
2023/06/15 02:46:27;;;;;;;12.05;10.52;;;;;;;;;;4994409;28;20025;-65
2023/06/15 02:48:56;;;;;;;11.82;10.15;;;;;;;;;;4994659;28;20022;-66
2023/06/15 02:51:23;;;;;;;15.48;10.65;;;;;;;;;;4994323;28;20052;-66
2023/06/15 02:53:49;;;;;;;15.88;9.48;;;;;;;;;;4994533;28;20030;-65
2023/06/15 02:56:19;;;;;;;13.77;8.10;;;;;;;;;;4994105;28;20030;-65
2023/06/15 02:58:47;;;;;;;15.07;9.40;;;;;;;;;;4993747;28;20034;-65
2023/06/15 03:01:17;;;;;;;21.40;11.93;;;;;;;;;;4994381;28;20034;-65
2023/06/15 03:03:44;;;;;;;18.83;11.70;;;;;;;;;;4994076;28;20032;-65
2023/06/15 03:06:11;;;;;;;19.80;11.00;;;;;;;;;;4994549;28;20026;-65
2023/06/15 03:08:38;;;;;;;17.95;11.65;;;;;;;;;;4993772;28;20038;-65
2023/06/15 03:11:04;;;;;;;14.68;12.77;;;;;;;;;;4994206;28;20034;-65
2023/06/15 03:13:30;;;;;;;20.85;11.90;;;;;;;;;;4993974;28;20022;-65
2023/06/15 03:15:59;;;;;;;18.20;11.63;;;;;;;;;;4994035;28;20015;-66
2023/06/15 03:18:25;;;;;;;14.95;11.70;;;;;;;;;;4993748;28;20434;-65
2023/06/15 03:20:52;;;;;;;18.17;12.25;;;;;;;;;;4993908;28;20026;-65
2023/06/15 03:23:19;;;;;;;15.70;12.23;;;;;;;;;;4993636;28;20034;-65
2023/06/15 03:25:46;;;;;;;18.17;12.32;;;;;;;;;;4993666;28;20022;-66
2023/06/15 03:28:12;;;;;;;18.33;12.45;;;;;;;;;;4993866;28;20039;-65
2023/06/15 03:30:41;;;;;;;15.32;12.48;;;;;;;;;;4993612;28;20027;-65
2023/06/15 03:33:08;;;;;;;16.83;12.32;;;;;;;;;;4993485;28;20398;-65
2023/06/15 03:35:35;;;;;;;16.38;12.10;;;;;;;;;;4993520;28;20033;-65
2023/06/15 03:38:01;;;;;;;14.10;10.90;;;;;;;;;;4993205;28;20031;-65
2023/06/15 03:40:30;;;;;;;18.42;10.40;;;;;;;;;;4992659;28;20022;-66
2023/06/15 03:42:56;;;;;;;15.27;9.77;;;;;;;;;;4993313;28;20048;-65
2023/06/15 03:45:22;;;;;;;13.65;8.82;;;;;;;;;;4993312;28;20025;-65
2023/06/15 03:47:49;;;;;;;12.65;8.75;;;;;;;;;;4993235;28;20027;-66
2023/06/15 03:50:15;;;;;;;10.85;9.13;;;;;;;;;;4993155;28;20030;-65
2023/06/15 03:52:41;;;;;;;13.15;10.02;;;;;;;;;;4993130;28;20085;-65
2023/06/15 03:55:08;;;;;;;16.58;10.13;;;;;;;;;;4993148;28;20033;-67
2023/06/15 03:57:34;;;;;;;15.93;11.23;;;;;;;;;;4993113;28;20027;-65
2023/06/15 04:00:01;;;;;;;18.83;12.50;;;;;;;;;;4993222;28;20034;-66
2023/06/15 04:02:27;;;;;;;18.83;12.35;;;;;;;;;;4993092;28;20019;-65
2023/06/15 04:04:55;;;;;;;13.52;12.13;;;;;;;;;;4993196;28;20028;-65
2023/06/15 04:07:22;;;;;;;17.10;12.25;;;;;;;;;;4993026;28;20092;-65
2023/06/15 04:09:50;;;;;;;21.10;12.18;;;;;;;;;;4992570;28;20513;-65
2023/06/15 04:12:16;;;;;;;18.77;12.20;;;;;;;;;;4992918;28;20026;-65
2023/06/15 04:14:42;;;;;;;20.02;12.68;;;;;;;;;;4993017;28;20401;-65
2023/06/15 04:17:08;;;;;;;22.92;13.32;;;;;;;;;;4992647;28;20521;-65
2023/06/15 04:19:35;;;;;;;21.33;12.32;;;;;;;;;;4993046;28;20485;-65
2023/06/15 04:22:01;;;;;;;22.58;12.73;;;;;;;;;;4993113;28;20023;-65
2023/06/15 04:24:28;;;;;;;13.80;11.93;;;;;;;;;;4992422;28;20030;-65
2023/06/15 04:26:57;;;;;;;15.45;13.18;;;;;;;;;;4993045;28;20026;-65
2023/06/15 04:29:23;;;;;;;20.27;12.68;;;;;;;;;;4992535;28;20390;-65
2023/06/15 04:31:55;;;;;;;21.83;13.20;;;;;;;;;;4992872;28;20080;-65
2023/06/15 04:34:22;;;;;;;18.23;12.15;;;;;;;;;;4992625;28;20529;-65
2023/06/15 04:36:49;;;;;;;17.15;13.00;;;;;;;;;;4992576;28;20023;-67
2023/06/15 04:39:15;;;;;;;23.52;12.77;;;;;;;;;;4992576;28;20040;-65
2023/06/15 04:41:42;;;;;;;18.13;12.43;;;;;;;;;;4992668;28;20022;-65
2023/06/15 04:44:08;;;;;;;16.55;12.70;;;;;;;;;;4992577;28;20038;-65
2023/06/15 04:46:39;;;;;;;15.45;11.90;;;;;;;;;;4992731;28;20022;-65
2023/06/15 04:49:06;;;;;;;18.92;12.95;;;;;;;;;;4992677;28;20031;-67
2023/06/15 04:51:33;;;;;;;21.80;12.80;;;;;;;;;;4994603;28;20042;-65
2023/06/15 04:53:59;;;;;;;16.65;11.98;;;;;;;;;;4996056;28;20038;-66
2023/06/15 04:56:26;;;;;;;15.98;12.57;;;;;;;;;;4996403;28;20022;-65
2023/06/15 04:58:53;;;;;;;12.82;11.25;;;;;;;;;;4996336;28;20038;-65
2023/06/15 05:01:19;;;;;;;18.02;12.30;;;;;;;;;;4996245;28;20410;-65
2023/06/15 05:03:45;;;;;;;16.13;11.65;;;;;;;;;;4996577;28;20316;-65
2023/06/15 05:06:12;;;;;;;17.08;11.32;;;;;;;;;;4996079;28;20022;-65
2023/06/15 05:08:39;;;;;;;17.83;10.70;;;;;;;;;;4994703;28;20483;-65
2023/06/15 05:11:05;;;;;;;12.40;9.82;;;;;;;;;;4996125;28;20026;-65
2023/06/15 05:13:31;;;;;;;14.25;9.57;;;;;;;;;;4996066;28;20429;-65
2023/06/15 05:15:57;;;;;;;20.20;9.80;;;;;;;;;;4996124;28;20026;-65
2023/06/15 05:18:25;;;;;;;12.60;10.60;;;;;;;;;;4995943;28;20392;-65
2023/06/15 05:20:51;;;;;;;11.43;9.50;;;;;;;;;;4987160;28;20027;-66
2023/06/15 05:23:21;;;;;;;14.10;9.85;;;;;;;;;;4959319;28;20439;-65
2023/06/15 05:25:48;;;;;;;14.27;9.98;;;;;;;;;;4976087;28;20026;-65
2023/06/15 05:28:15;;;;;;;13.82;9.63;;;;;;;;;;4963108;28;20035;-65
2023/06/15 05:30:41;;;;;;;14.40;9.93;;;;;;;;;;4955262;28;20023;-65
2023/06/15 05:33:08;;;;;;;17.58;10.90;;;;;;;;;;4974535;28;20390;-66
2023/06/15 05:35:34;;;;;;;15.80;11.18;;;;;;;;;;4963798;28;20081;-66
2023/06/15 05:38:01;;;;;;;14.45;11.13;;;;;;;;;;4955940;28;20027;-65
2023/06/15 05:40:27;;;;;;;15.20;11.52;;;;;;;;;;4956597;28;20034;-65
2023/06/15 05:42:54;;;;;;;18.83;12.32;;;;;;;;;;4956739;29;20042;-65
2023/06/15 05:45:20;;;;;;;16.38;12.45;;;;;;;;;;4956496;28;20500;-65
2023/06/15 05:47:47;;;;;;;19.10;12.75;;;;;;;;;;4956323;29;20026;-65
2023/06/15 05:50:13;;;;;;;15.85;12.77;;;;;;;;;;4956623;29;20019;-65
2023/06/15 05:52:39;;;;;;;17.00;12.50;;;;;;;;;;4955320;28;20421;-65
2023/06/15 05:55:06;;;;;;;13.20;11.35;;;;;;;;;;4967296;28;20026;-66
2023/06/15 05:57:34;;;;;;;19.92;11.43;;;;;;;;;;4994805;28;20453;-65
2023/06/15 06:00:00;;;;;;;14.25;11.23;;;;;;;;;;4995147;28;20034;-65
2023/06/15 06:02:26;;;;;;;14.35;10.32;;;;;;;;;;4994635;28;20045;-65
2023/06/15 06:04:52;;;;;;;14.13;10.30;;;;;;;;;;4995041;28;20025;-65
2023/06/15 06:07:19;;;;;;;14.85;10.77;;;;;;;;;;4994504;28;20049;-65
2023/06/15 06:09:45;;;;;;;17.55;10.82;;;;;;;;;;4994895;28;20030;-64
2023/06/15 06:12:13;;;;;;;19.15;11.48;;;;;;;;;;4994991;28;20430;-65
2023/06/15 06:14:39;;;;;;;14.80;10.35;;;;;;;;;;4995241;28;20023;-65
2023/06/15 06:17:06;;;;;;;18.55;10.00;;;;;;;;;;4995127;28;20038;-65
2023/06/15 06:19:32;;;;;;;22.73;11.90;;;;;;;;;;4995055;28;20034;-65
2023/06/15 06:21:58;;;;;;;15.48;12.68;;;;;;;;;;4994505;28;20024;-65
2023/06/15 06:24:26;;;;;;;14.75;11.77;;;;;;;;;;4994854;28;20031;-65
2023/06/15 06:26:52;;;;;;;15.80;11.70;;;;;;;;;;4993224;28;20479;-65
2023/06/15 06:29:18;;;;;;;18.45;11.63;;;;;;;;;;4958788;28;20089;-65
2023/06/15 06:31:44;;;;;;;25.58;12.05;;;;;;;;;;4955897;29;20031;-65
2023/06/15 06:34:11;;;;;;;14.80;11.13;;;;;;;;;;4955539;29;20530;-66
2023/06/15 06:36:37;;;;;;;15.30;11.65;;;;;;;;;;4970363;28;20607;-65
2023/06/15 06:39:03;;;;;;;12.80;10.63;;;;;;;;;;4971149;28;20105;-66
2023/06/15 06:41:30;;;;;;;17.20;10.65;;;;;;;;;;4972413;28;20030;-65
2023/06/15 06:43:56;;;;;;;12.38;10.10;;;;;;;;;;4961267;28;20037;-66
2023/06/15 06:46:22;;;;;;;17.55;11.38;;;;;;;;;;4966923;28;20036;-66
2023/06/15 06:48:49;;;;;;;15.98;10.55;;;;;;;;;;4970828;28;20018;-66
2023/06/15 06:51:16;;;;;;;15.20;11.15;;;;;;;;;;4962152;28;20514;-65
2023/06/15 06:53:43;;;;;;;15.13;10.88;;;;;;;;;;4974707;28;20035;-65
2023/06/15 06:56:09;;;;;;;21.90;10.57;;;;;;;;;;4980533;28;20031;-65
2023/06/15 06:58:36;;;;;;;17.88;10.55;;;;;;;;;;4973715;28;20046;-65
2023/06/15 07:01:02;;;;;;;23.02;10.25;;;;;;;;;;4974147;28;20019;-66
2023/06/15 07:03:29;;;;;;;14.07;10.25;;;;;;;;;;4973841;28;20030;-65
2023/06/15 07:05:55;;;;;;;13.85;10.05;;;;;;;;;;4972902;28;20027;-66
2023/06/15 07:08:21;;;;;;;18.48;10.65;;;;;;;;;;4957886;28;20384;-66
2023/06/15 07:10:48;;;;;;;12.00;9.27;;;;;;;;;;4965005;28;20019;-66
2023/06/15 07:13:15;;;;;;;13.38;9.20;;;;;;;;;;4969010;28;20027;-65
2023/06/15 07:15:41;;;;;;;12.95;9.55;;;;;;;;;;4965488;28;20020;-65
2023/06/15 07:18:07;;;;;;;17.75;9.50;;;;;;;;;;4954093;29;20046;-66
2023/06/15 07:20:34;;;;;;;15.68;9.15;;;;;;;;;;4954446;28;20020;-66
2023/06/15 07:23:00;;;;;;;21.30;8.93;;;;;;;;;;4954554;29;20030;-66
2023/06/15 07:25:26;;;;;;;16.10;9.68;;;;;;;;;;4954438;28;20378;-65
2023/06/15 07:27:52;;;;;;;15.05;8.52;;;;;;;;;;4952228;29;20057;-65
2023/06/15 07:30:19;;;;;;;12.10;8.90;;;;;;;;;;4966540;28;20029;-66
2023/06/15 07:32:45;;;;;;;15.15;8.65;;;;;;;;;;4953861;28;20455;-66
2023/06/15 07:35:12;;;;;;;12.25;8.88;;;;;;;;;;4960493;28;20029;-65
2023/06/15 07:37:38;;;;;;;12.23;8.95;;;;;;;;;;4972655;28;20073;-65
2023/06/15 07:40:05;;;;;;;12.05;8.55;;;;;;;;;;4972021;28;20027;-65
2023/06/15 07:42:32;;;;;;;11.93;8.82;;;;;;;;;;4956683;28;20034;-65
2023/06/15 07:44:58;;;;;;;12.43;8.88;;;;;;;;;;4953824;28;20077;-65
2023/06/15 07:47:24;;;;;;;16.92;9.00;;;;;;;;;;4959095;28;20379;-65
2023/06/15 07:49:51;;;;;;;14.02;9.10;;;;;;;;;;4973117;28;20034;-66
2023/06/15 07:52:17;;;;;;;12.98;7.93;;;;;;;;;;4967404;28;20065;-65
2023/06/15 07:54:43;;;;;;;14.88;8.50;;;;;;;;;;4958160;28;20042;-65
2023/06/15 07:57:10;;;;;;;13.20;8.23;;;;;;;;;;4988977;28;20022;-65
2023/06/15 07:59:36;;;;;;;10.55;8.07;;;;;;;;;;4972620;28;20043;-65
2023/06/15 08:02:02;;;;;;;15.05;7.97;;;;;;;;;;4971677;28;20033;-66
2023/06/15 08:04:29;;;;;;;12.52;7.55;;;;;;;;;;4972496;28;20037;-65
2023/06/15 08:06:55;;;;;;;9.15;7.78;;;;;;;;;;4957335;28;20023;-66
2023/06/15 08:09:22;;;;;;;10.82;8.00;;;;;;;;;;4971904;28;20018;-66
2023/06/15 08:11:49;;;;;;;12.55;7.47;;;;;;;;;;4972066;28;20488;-66
2023/06/15 08:14:16;;;;;;;9.75;7.32;;;;;;;;;;4971907;28;20045;-65
2023/06/15 08:16:42;;;;;;;10.20;7.35;;;;;;;;;;4971030;28;20023;-65
2023/06/15 08:19:08;;;;;;;12.15;7.63;;;;;;;;;;4968179;28;20088;-65
2023/06/15 08:21:35;;;;;;;10.98;7.72;;;;;;;;;;4952190;28;20386;-64
2023/06/15 08:24:01;;;;;;;12.52;7.68;;;;;;;;;;4960144;28;20057;-64
2023/06/15 08:26:27;;;;;;;10.05;7.40;;;;;;;;;;4952781;29;20058;-65
2023/06/15 08:28:54;;;;;;;11.10;7.25;;;;;;;;;;4952722;28;20035;-65
2023/06/15 08:31:20;;;;;;;10.20;7.30;;;;;;;;;;4952336;29;20035;-65
2023/06/15 08:33:46;;;;;;;9.80;6.47;;;;;;;;;;4953010;29;20472;-65
2023/06/15 08:36:13;;;;;;;9.75;6.70;;;;;;;;;;4953051;28;20031;-65
2023/06/15 08:38:39;;;;;;;11.63;7.00;;;;;;;;;;4969087;28;20396;-66
2023/06/15 08:41:07;;;;;;;9.93;6.30;;;;;;;;;;4971192;28;20062;-66
2023/06/15 08:43:33;;;;;;;10.27;6.38;;;;;;;;;;4971632;28;20476;-66
2023/06/15 08:46:00;;;;;;;7.80;6.55;;;;;;;;;;4971311;28;20033;-65
2023/06/15 08:48:28;;;;;;;10.52;6.75;;;;;;;;;;4971643;28;20038;-66
2023/06/15 08:50:54;;;;;;;9.55;6.50;;;;;;;;;;4970821;28;20035;-65
2023/06/15 08:53:22;;;;;;;12.05;6.40;;;;;;;;;;4971064;28;20047;-65
2023/06/15 08:55:49;;;;;;;9.80;6.35;;;;;;;;;;4983141;28;20084;-66
2023/06/15 08:58:15;;;;;;;9.77;6.28;;;;;;;;;;4990440;28;20033;-66
2023/06/15 09:00:42;;;;;;;10.48;6.28;;;;;;;;;;4951564;29;20023;-65
2023/06/15 09:03:09;;;;;;;10.43;6.50;;;;;;;;;;4951964;28;20053;-64
2023/06/15 09:05:36;;;;;;;9.48;6.25;;;;;;;;;;4970691;28;20430;-66
2023/06/15 09:08:03;;;;;;;7.82;6.43;;;;;;;;;;4971877;28;20031;-66
2023/06/15 09:10:31;;;;;;;9.63;6.18;;;;;;;;;;4954772;28;20534;-66
2023/06/15 09:12:58;;;;;;;9.02;6.35;;;;;;;;;;4951794;28;20038;-66
2023/06/15 09:15:25;;;;;;;14.45;6.00;;;;;;;;;;4967866;28;20027;-66
2023/06/15 09:17:52;;;;;;;8.25;5.80;;;;;;;;;;4964700;28;20566;-66
2023/06/15 09:20:20;;;;;;;9.38;5.40;;;;;;;;;;4971058;28;20019;-65
2023/06/15 09:22:47;;;;;;;9.13;5.82;;;;;;;;;;4971542;28;20031;-67
2023/06/15 09:25:17;;;;;;;9.30;5.68;;;;;;;;;;4971116;28;20029;-66
2023/06/15 09:28:04;;;;;;;8.73;5.60;;;;;;;;;;4971708;28;20053;-68
2023/06/15 09:30:37;;;;;;;6.97;5.20;;;;;;;;;;4953633;28;20035;-67
2023/06/15 09:33:11;;;;;;;6.93;5.70;;;;;;;;;;4952271;29;20041;-67
2023/06/15 09:35:37;;;;;;;5.32;4.70;;;;;;;;;;4952224;28;20027;-66
2023/06/15 09:38:03;;;;;;;6.60;4.70;;;;;;;;;;4970593;28;20741;-67
2023/06/15 09:40:33;;;;;;;5.10;4.47;;;;;;;;;;4974865;28;20031;-66
2023/06/15 09:42:59;;;;;;;8.75;5.30;;;;;;;;;;4975042;28;20027;-67
2023/06/15 09:45:26;;;;;;;5.65;4.90;;;;;;;;;;4974674;28;20045;-67
2023/06/15 09:47:56;;;;;;;8.38;4.85;;;;;;;;;;4975015;28;20037;-67
2023/06/15 09:50:29;;;;;;;7.68;5.15;;;;;;;;;;4989995;28;20037;-67
2023/06/15 09:52:56;;;;;;;6.95;4.60;;;;;;;;;;4993153;28;20047;-66
2023/06/15 09:55:23;;;;;;;7.82;4.97;;;;;;;;;;4985913;28;20027;-67
2023/06/15 09:57:52;;;;;;;6.55;4.68;;;;;;;;;;4974474;28;20480;-67
2023/06/15 10:00:19;;;;;;;6.20;4.50;;;;;;;;;;4974878;28;20041;-67
2023/06/15 10:02:46;;;;;;;8.07;4.82;;;;;;;;;;4975053;28;20043;-67
2023/06/15 10:05:14;;;;;;;7.85;5.03;;;;;;;;;;4974396;28;20562;-68
2023/06/15 10:07:48;;;;;;;8.25;4.80;;;;;;;;;;4974975;28;20035;-67
2023/06/15 10:10:16;;;;;;;4.30;3.90;;;;;;;;;;4974602;28;20515;-68
2023/06/15 10:12:45;;;;;;;6.50;4.45;;;;;;;;;;4974170;28;20034;-67
2023/06/15 10:15:14;;;;;;;6.30;4.45;;;;;;;;;;4974131;28;20031;-67
2023/06/15 10:17:43;;;;;;;8.63;4.85;;;;;;;;;;4973236;28;20585;-68
2023/06/15 10:20:11;;;;;;;7.60;4.80;;;;;;;;;;4971046;28;20506;-68
2023/06/15 10:22:57;;;;;;;9.23;4.27;;;;;;;;;;4969629;28;20510;-67
2023/06/15 10:25:24;;;;;;;7.15;3.97;;;;;;;;;;4962843;28;20033;-67
2023/06/15 10:27:51;;;;;;;8.30;4.93;;;;;;;;;;4954616;28;20031;-67
2023/06/15 10:30:21;;;;;;;8.80;4.15;;;;;;;;;;4954498;29;20471;-66
2023/06/15 10:33:00;;;;;;;7.07;4.45;;;;;;;;;;4953386;29;20037;-67
2023/06/15 10:35:30;;;;;;;7.00;4.45;;;;;;;;;;4954763;29;20029;-65
2023/06/15 10:38:02;;;;;;;5.72;4.60;;;;;;;;;;4954313;28;20031;-68
2023/06/15 10:40:30;;;;;;;5.25;4.28;;;;;;;;;;4954289;28;20417;-66
2023/06/15 10:42:59;;;;;;;5.03;4.35;;;;;;;;;;4954330;28;20023;-66
2023/06/15 10:45:27;;;;;;;5.72;4.65;;;;;;;;;;4954456;29;20035;-67
2023/06/15 10:47:53;;;;;;;4.93;4.45;;;;;;;;;;4953256;28;20046;-67
2023/06/15 10:50:20;;;;;;;6.15;4.68;;;;;;;;;;4952445;28;20372;-67
2023/06/15 10:52:46;;;;;;;7.28;4.53;;;;;;;;;;4969324;28;20058;-67
2023/06/15 10:55:15;;;;;;;6.28;4.38;;;;;;;;;;4979522;28;20398;-66
2023/06/15 10:57:41;;;;;;;;;;;;;;;;;;4981748;28;20031;-67
2023/06/15 11:00:11;;;;;;;5.20;4.03;;;;;;;;;;4973789;28;19953;-67
2023/06/15 11:02:38;;;;;;;5.63;4.47;;;;;;;;;;4974013;28;20027;-67
2023/06/15 11:05:08;;;;;;;4.50;4.10;;;;;;;;;;4973799;28;20041;-67
2023/06/15 11:07:36;;;;;;;6.63;4.40;;;;;;;;;;4974104;28;20022;-67
2023/06/15 11:10:22;;;;;;;6.95;4.60;;;;;;;;;;4973244;28;20029;-67
2023/06/15 11:12:51;;;;;;;5.93;4.03;;;;;;;;;;4972463;28;20041;-67
2023/06/15 11:15:18;;;;;;;6.10;4.00;;;;;;;;;;4971640;28;20041;-67
2023/06/15 11:17:54;;;;;;;5.65;4.45;;;;;;;;;;4974096;28;20025;-67
2023/06/15 11:20:39;;;;;;;5.15;4.57;;;;;;;;;;4973904;28;20037;-67
2023/06/15 11:23:19;;;;;;;7.00;4.53;;;;;;;;;;4973865;28;20030;-67
2023/06/15 11:25:46;;;;;;;5.72;4.43;;;;;;;;;;4973453;28;20030;-68
2023/06/15 11:28:20;;;;;;;6.22;4.30;;;;;;;;;;4973026;28;20040;-67
2023/06/15 11:30:47;;;;;;;5.57;4.30;;;;;;;;;;4973743;28;20027;-67
2023/06/15 11:33:14;;;;;;;5.38;3.75;;;;;;;;;;4956479;28;20039;-67
2023/06/15 11:35:40;;;;;;;5.70;4.20;;;;;;;;;;4973972;28;20027;-67
2023/06/15 11:38:07;;;;;;;8.55;4.50;;;;;;;;;;4973525;28;20042;-67
2023/06/15 11:40:34;;;;;;;6.15;3.90;;;;;;;;;;4973262;28;20498;-67
2023/06/15 11:43:02;;;;;;;5.85;4.28;;;;;;;;;;4972456;28;20022;-66
2023/06/15 11:45:29;;;;;;;8.30;4.10;;;;;;;;;;4973881;28;20038;-67
2023/06/15 11:47:55;;;;;;;9.02;5.13;;;;;;;;;;4973819;28;20106;-67
2023/06/15 11:50:23;;;;;;;6.45;4.25;;;;;;;;;;4973452;28;20049;-67
2023/06/15 11:52:50;;;;;;;8.70;4.05;;;;;;;;;;4973348;28;20108;-67
2023/06/15 11:55:16;;;;;;;7.75;3.97;;;;;;;;;;4980175;28;20048;-67
2023/06/15 11:57:43;;;;;;;8.55;4.10;;;;;;;;;;4992862;28;20030;-67
2023/06/15 12:00:10;;;;;;;7.10;4.43;;;;;;;;;;4985365;28;20483;-67
2023/06/15 12:02:37;;;;;;;7.43;4.43;;;;;;;;;;4958323;28;20027;-67
2023/06/15 12:05:04;;;;;;;5.28;4.18;;;;;;;;;;4954049;29;20100;-67
2023/06/15 12:07:32;;;;;;;7.72;4.38;;;;;;;;;;4952863;29;20039;-67
2023/06/15 12:10:00;;;;;;;5.78;4.18;;;;;;;;;;4953713;28;20042;-67
2023/06/15 12:12:36;;;;;;;4.55;4.10;;;;;;;;;;4954342;28;20031;-67
2023/06/15 12:15:02;;;;;;;5.35;4.30;;;;;;;;;;4953044;29;20034;-67
2023/06/15 12:17:33;;;;;;;5.78;4.20;;;;;;;;;;4953821;29;20496;-67
2023/06/15 12:20:13;;;;;;;7.78;4.30;;;;;;;;;;4953946;29;20383;-67
2023/06/15 12:22:47;;;;;;;5.63;3.88;;;;;;;;;;4953545;29;20030;-67
2023/06/15 12:25:14;;;;;;;6.30;4.45;;;;;;;;;;4953811;28;20125;-67
2023/06/15 12:27:47;;;;;;;4.93;4.22;;;;;;;;;;4954008;29;20105;-67
2023/06/15 12:30:15;;;;;;;5.15;4.00;;;;;;;;;;4953812;28;20027;-67
2023/06/15 12:32:45;;;;;;;9.27;4.20;;;;;;;;;;4953958;29;20031;-66
2023/06/15 12:35:24;;;;;;;11.13;4.25;;;;;;;;;;4953664;29;20078;-67
2023/06/15 12:37:51;;;;;;;5.53;4.35;;;;;;;;;;4953541;29;20023;-66
2023/06/15 12:40:21;;;;;;;5.78;4.00;;;;;;;;;;4953702;28;20046;-66
2023/06/15 12:42:56;;;;;;;6.88;4.30;;;;;;;;;;4953765;29;20094;-67
2023/06/15 12:45:22;;;;;;;5.03;3.85;;;;;;;;;;4954094;29;20023;-67
2023/06/15 12:47:49;;;;;;;5.88;4.25;;;;;;;;;;4953278;29;20046;-66
2023/06/15 12:50:16;;;;;;;6.13;4.35;;;;;;;;;;4953855;28;20026;-66
2023/06/15 12:52:42;;;;;;;6.05;4.20;;;;;;;;;;4953093;29;20381;-66
2023/06/15 12:55:08;;;;;;;5.00;3.95;;;;;;;;;;4964198;28;20031;-66
2023/06/15 12:57:35;;;;;;;8.80;4.50;;;;;;;;;;4992446;28;20089;-66
2023/06/15 13:00:04;;;;;;;6.60;4.30;;;;;;;;;;4992239;28;20025;-66
2023/06/15 13:02:31;;;;;;;6.05;4.20;;;;;;;;;;4992342;28;20019;-66
2023/06/15 13:05:02;;;;;;;7.07;3.90;;;;;;;;;;4992282;28;20030;-67
2023/06/15 13:07:31;;;;;;;6.63;4.65;;;;;;;;;;4991821;28;20052;-67
2023/06/15 13:09:58;;;;;;;9.00;4.40;;;;;;;;;;4992217;28;20022;-67
2023/06/15 13:12:24;;;;;;;9.48;4.47;;;;;;;;;;4994064;28;20022;-66
2023/06/15 13:14:50;;;;;;;4.97;4.30;;;;;;;;;;4995917;28;20386;-66
2023/06/15 13:17:16;;;;;;;5.18;4.20;;;;;;;;;;4996002;28;20101;-66
2023/06/15 13:19:43;;;;;;;9.55;4.35;;;;;;;;;;4995819;28;20040;-67
2023/06/15 13:22:09;;;;;;;6.68;4.80;;;;;;;;;;4994680;28;20032;-67
2023/06/15 13:24:36;;;;;;;6.10;4.53;;;;;;;;;;4995803;28;20391;-67
2023/06/15 13:27:03;;;;;;;7.32;4.80;;;;;;;;;;4996084;28;20037;-66
2023/06/15 13:29:31;;;;;;;6.18;4.38;;;;;;;;;;4995539;28;20045;-66
2023/06/15 13:31:58;;;;;;;6.40;4.55;;;;;;;;;;4995645;28;20418;-67
2023/06/15 13:34:25;;;;;;;5.57;4.43;;;;;;;;;;4995601;28;20028;-66
2023/06/15 13:36:51;;;;;;;11.48;4.47;;;;;;;;;;4995305;28;20014;-66
2023/06/15 13:39:17;;;;;;;8.55;4.97;;;;;;;;;;4995335;28;20046;-67
2023/06/15 13:41:44;;;;;;;7.72;4.60;;;;;;;;;;4995518;28;20483;-66
2023/06/15 13:44:10;;;;;;;6.47;4.22;;;;;;;;;;4995815;28;20057;-67
2023/06/15 13:46:37;;;;;;;10.02;4.10;;;;;;;;;;4995246;28;20022;-66
2023/06/15 13:49:09;;;;;;;6.60;4.68;;;;;;;;;;4995211;28;20030;-66
2023/06/15 13:51:36;;;;;;;4.95;4.45;;;;;;;;;;4995371;28;20622;-66
2023/06/15 13:54:03;;;;;;;8.95;4.55;;;;;;;;;;4995136;28;20035;-66
2023/06/15 13:56:29;;;;;;;5.85;4.70;;;;;;;;;;4994965;28;20032;-66
2023/06/15 13:58:56;;;;;;;6.75;4.95;;;;;;;;;;4995173;28;20042;-66
2023/06/15 14:01:23;;;;;;;7.10;4.57;;;;;;;;;;4995100;28;20025;-66
2023/06/15 14:03:53;;;;;;;7.95;4.35;;;;;;;;;;4994735;28;20483;-66
2023/06/15 14:06:20;;;;;;;4.72;4.13;;;;;;;;;;4995065;28;20479;-66
2023/06/15 14:08:46;;;;;;;5.28;4.78;;;;;;;;;;4995146;28;20084;-66
2023/06/15 14:11:14;;;;;;;4.93;4.45;;;;;;;;;;4994845;28;20399;-67
2023/06/15 14:13:40;;;;;;;7.28;4.43;;;;;;;;;;4995010;28;20432;-66
2023/06/15 14:16:07;;;;;;;6.65;4.80;;;;;;;;;;4994864;28;20026;-66
2023/06/15 14:18:33;;;;;;;7.82;5.03;;;;;;;;;;4994044;28;20037;-66
2023/06/15 14:21:00;;;;;;;9.15;5.05;;;;;;;;;;4995069;28;20023;-65
2023/06/15 14:23:26;;;;;;;5.93;4.70;;;;;;;;;;4993975;28;20022;-66
2023/06/15 14:25:52;;;;;;;11.10;5.35;;;;;;;;;;4994604;28;20025;-66
2023/06/15 14:28:18;;;;;;;6.68;4.72;;;;;;;;;;4994586;28;20026;-65
2023/06/15 14:30:45;;;;;;;11.40;5.30;;;;;;;;;;4994695;28;20034;-66
2023/06/15 14:33:11;;;;;;;6.13;4.82;;;;;;;;;;4994080;28;20486;-66